sensor_id;sensor_type;location;lat;lon;timestamp;temperature;humidity
18218;DHT22;9234;49.344;11.120;2023-07-30T00:00:29;18.40;99.90
18218;DHT22;9234;49.344;11.120;2023-07-30T00:02:58;18.50;99.90
18218;DHT22;9234;49.344;11.120;2023-07-30T00:05:26;18.50;99.90
18218;DHT22;9234;49.344;11.120;2023-07-30T00:07:55;18.40;99.90
18218;DHT22;9234;49.344;11.120;2023-07-30T00:10:25;18.50;99.90
18218;DHT22;9234;49.344;11.120;2023-07-30T00:12:53;18.50;99.90
18218;DHT22;9234;49.344;11.120;2023-07-30T00:15:22;18.50;99.90
18218;DHT22;9234;49.344;11.120;2023-07-30T00:17:50;18.50;99.90
18218;DHT22;9234;49.344;11.120;2023-07-30T00:20:20;18.50;99.90
18218;DHT22;9234;49.344;11.120;2023-07-30T00:22:49;18.50;99.90
18218;DHT22;9234;49.344;11.120;2023-07-30T00:25:17;18.50;99.90
18218;DHT22;9234;49.344;11.120;2023-07-30T00:27:47;18.50;99.90
18218;DHT22;9234;49.344;11.120;2023-07-30T00:30:15;18.50;99.90
18218;DHT22;9234;49.344;11.120;2023-07-30T00:32:44;18.50;99.90
18218;DHT22;9234;49.344;11.120;2023-07-30T00:35:12;18.50;99.90
18218;DHT22;9234;49.344;11.120;2023-07-30T00:37:40;18.50;99.90
18218;DHT22;9234;49.344;11.120;2023-07-30T00:40:09;18.50;99.90
18218;DHT22;9234;49.344;11.120;2023-07-30T00:42:39;18.50;99.90
18218;DHT22;9234;49.344;11.120;2023-07-30T00:45:10;18.50;99.90
18218;DHT22;9234;49.344;11.120;2023-07-30T00:47:38;18.50;99.90
18218;DHT22;9234;49.344;11.120;2023-07-30T00:50:08;18.60;99.90
18218;DHT22;9234;49.344;11.120;2023-07-30T00:52:38;18.60;99.90
18218;DHT22;9234;49.344;11.120;2023-07-30T00:55:09;18.60;99.90
18218;DHT22;9234;49.344;11.120;2023-07-30T00:57:39;18.60;99.90
18218;DHT22;9234;49.344;11.120;2023-07-30T01:00:11;18.60;99.90
18218;DHT22;9234;49.344;11.120;2023-07-30T01:02:41;18.60;99.90
18218;DHT22;9234;49.344;11.120;2023-07-30T01:05:10;18.70;99.90
18218;DHT22;9234;49.344;11.120;2023-07-30T01:07:38;18.60;99.90
18218;DHT22;9234;49.344;11.120;2023-07-30T01:10:07;18.70;99.90
18218;DHT22;9234;49.344;11.120;2023-07-30T01:12:37;18.60;99.90
18218;DHT22;9234;49.344;11.120;2023-07-30T01:15:07;18.60;99.90
18218;DHT22;9234;49.344;11.120;2023-07-30T01:17:39;18.60;99.90
18218;DHT22;9234;49.344;11.120;2023-07-30T01:20:10;18.70;99.90
18218;DHT22;9234;49.344;11.120;2023-07-30T01:22:40;18.60;99.90
18218;DHT22;9234;49.344;11.120;2023-07-30T01:25:09;18.70;99.90
18218;DHT22;9234;49.344;11.120;2023-07-30T01:27:39;18.60;99.90
18218;DHT22;9234;49.344;11.120;2023-07-30T01:30:21;18.60;99.90
18218;DHT22;9234;49.344;11.120;2023-07-30T01:32:58;18.60;99.90
18218;DHT22;9234;49.344;11.120;2023-07-30T01:35:27;18.60;99.90
18218;DHT22;9234;49.344;11.120;2023-07-30T01:37:58;18.60;99.90
18218;DHT22;9234;49.344;11.120;2023-07-30T01:40:29;18.60;99.90
18218;DHT22;9234;49.344;11.120;2023-07-30T01:42:58;18.60;99.90
18218;DHT22;9234;49.344;11.120;2023-07-30T01:45:26;18.60;99.90
18218;DHT22;9234;49.344;11.120;2023-07-30T01:47:55;18.60;99.90
18218;DHT22;9234;49.344;11.120;2023-07-30T01:50:23;18.60;99.90
18218;DHT22;9234;49.344;11.120;2023-07-30T01:52:52;18.60;99.90
18218;DHT22;9234;49.344;11.120;2023-07-30T01:55:21;18.60;99.90
18218;DHT22;9234;49.344;11.120;2023-07-30T01:57:50;18.60;99.90
18218;DHT22;9234;49.344;11.120;2023-07-30T02:00:18;18.60;99.90
18218;DHT22;9234;49.344;11.120;2023-07-30T02:02:46;18.60;99.90
18218;DHT22;9234;49.344;11.120;2023-07-30T02:05:15;18.60;99.90
18218;DHT22;9234;49.344;11.120;2023-07-30T02:07:44;18.60;99.90
18218;DHT22;9234;49.344;11.120;2023-07-30T02:10:12;18.60;99.90
18218;DHT22;9234;49.344;11.120;2023-07-30T02:12:42;18.60;99.90
18218;DHT22;9234;49.344;11.120;2023-07-30T02:15:10;18.60;99.90
18218;DHT22;9234;49.344;11.120;2023-07-30T02:17:39;18.60;99.90
18218;DHT22;9234;49.344;11.120;2023-07-30T02:20:08;18.60;99.90
18218;DHT22;9234;49.344;11.120;2023-07-30T02:22:37;18.60;99.90
18218;DHT22;9234;49.344;11.120;2023-07-30T02:25:06;18.60;99.90
18218;DHT22;9234;49.344;11.120;2023-07-30T02:27:35;18.60;99.90
18218;DHT22;9234;49.344;11.120;2023-07-30T02:30:06;18.60;99.90
18218;DHT22;9234;49.344;11.120;2023-07-30T02:32:35;18.60;99.90
18218;DHT22;9234;49.344;11.120;2023-07-30T02:35:04;18.60;99.90
18218;DHT22;9234;49.344;11.120;2023-07-30T02:37:33;18.60;99.90
18218;DHT22;9234;49.344;11.120;2023-07-30T02:40:01;18.60;99.90
18218;DHT22;9234;49.344;11.120;2023-07-30T02:42:31;18.60;99.90
18218;DHT22;9234;49.344;11.120;2023-07-30T02:45:00;18.60;99.90
18218;DHT22;9234;49.344;11.120;2023-07-30T02:47:30;18.60;99.90
18218;DHT22;9234;49.344;11.120;2023-07-30T02:49:58;18.60;99.90
18218;DHT22;9234;49.344;11.120;2023-07-30T02:52:26;18.60;99.90
18218;DHT22;9234;49.344;11.120;2023-07-30T02:54:55;18.50;99.90
18218;DHT22;9234;49.344;11.120;2023-07-30T02:57:23;18.50;99.90
18218;DHT22;9234;49.344;11.120;2023-07-30T02:59:51;18.50;99.90
18218;DHT22;9234;49.344;11.120;2023-07-30T03:02:19;18.50;99.90
18218;DHT22;9234;49.344;11.120;2023-07-30T03:04:49;18.40;99.90
18218;DHT22;9234;49.344;11.120;2023-07-30T03:07:20;18.40;99.90
18218;DHT22;9234;49.344;11.120;2023-07-30T03:09:49;18.30;99.90
18218;DHT22;9234;49.344;11.120;2023-07-30T03:12:17;18.30;99.90
18218;DHT22;9234;49.344;11.120;2023-07-30T03:14:46;18.30;99.90
18218;DHT22;9234;49.344;11.120;2023-07-30T03:17:14;18.20;99.90
18218;DHT22;9234;49.344;11.120;2023-07-30T03:19:42;18.20;99.90
18218;DHT22;9234;49.344;11.120;2023-07-30T03:22:12;18.20;99.90
18218;DHT22;9234;49.344;11.120;2023-07-30T03:24:41;18.10;99.90
18218;DHT22;9234;49.344;11.120;2023-07-30T03:27:10;18.10;99.90
18218;DHT22;9234;49.344;11.120;2023-07-30T03:29:38;18.10;99.90
18218;DHT22;9234;49.344;11.120;2023-07-30T03:32:07;18.00;99.90
18218;DHT22;9234;49.344;11.120;2023-07-30T03:34:36;18.00;99.90
18218;DHT22;9234;49.344;11.120;2023-07-30T03:37:05;18.00;99.90
18218;DHT22;9234;49.344;11.120;2023-07-30T03:39:35;18.00;99.90
18218;DHT22;9234;49.344;11.120;2023-07-30T03:42:04;17.90;99.90
18218;DHT22;9234;49.344;11.120;2023-07-30T03:44:34;17.90;99.90
18218;DHT22;9234;49.344;11.120;2023-07-30T03:47:03;17.90;99.90
18218;DHT22;9234;49.344;11.120;2023-07-30T03:49:33;17.90;99.90
18218;DHT22;9234;49.344;11.120;2023-07-30T03:52:01;17.90;99.90
18218;DHT22;9234;49.344;11.120;2023-07-30T03:54:30;17.90;99.90
18218;DHT22;9234;49.344;11.120;2023-07-30T03:57:00;17.80;99.90
18218;DHT22;9234;49.344;11.120;2023-07-30T03:59:29;17.80;99.90
18218;DHT22;9234;49.344;11.120;2023-07-30T04:01:57;17.80;99.90
18218;DHT22;9234;49.344;11.120;2023-07-30T04:04:26;17.80;99.90
18218;DHT22;9234;49.344;11.120;2023-07-30T04:06:54;17.80;99.90
18218;DHT22;9234;49.344;11.120;2023-07-30T04:09:23;17.80;99.90
18218;DHT22;9234;49.344;11.120;2023-07-30T04:11:51;17.70;99.90
18218;DHT22;9234;49.344;11.120;2023-07-30T04:14:21;17.70;99.90
18218;DHT22;9234;49.344;11.120;2023-07-30T04:16:49;17.70;99.90
18218;DHT22;9234;49.344;11.120;2023-07-30T04:19:20;17.70;99.90
18218;DHT22;9234;49.344;11.120;2023-07-30T04:21:49;17.70;99.90
18218;DHT22;9234;49.344;11.120;2023-07-30T04:24:17;17.70;99.90
18218;DHT22;9234;49.344;11.120;2023-07-30T04:26:46;17.70;99.90
18218;DHT22;9234;49.344;11.120;2023-07-30T04:29:14;17.70;99.90
18218;DHT22;9234;49.344;11.120;2023-07-30T04:31:45;17.70;99.90
18218;DHT22;9234;49.344;11.120;2023-07-30T04:34:13;17.60;99.90
18218;DHT22;9234;49.344;11.120;2023-07-30T04:36:42;17.70;99.90
18218;DHT22;9234;49.344;11.120;2023-07-30T04:39:11;17.70;99.90
18218;DHT22;9234;49.344;11.120;2023-07-30T04:41:40;17.60;99.90
18218;DHT22;9234;49.344;11.120;2023-07-30T04:44:08;17.60;99.90
18218;DHT22;9234;49.344;11.120;2023-07-30T04:46:37;17.60;99.90
18218;DHT22;9234;49.344;11.120;2023-07-30T04:49:06;17.60;99.90
18218;DHT22;9234;49.344;11.120;2023-07-30T04:51:35;17.60;99.90
18218;DHT22;9234;49.344;11.120;2023-07-30T04:54:05;17.60;99.90
18218;DHT22;9234;49.344;11.120;2023-07-30T04:56:34;17.60;99.90
18218;DHT22;9234;49.344;11.120;2023-07-30T04:59:02;17.60;99.90
18218;DHT22;9234;49.344;11.120;2023-07-30T05:01:31;17.60;99.90
18218;DHT22;9234;49.344;11.120;2023-07-30T05:04:00;17.70;99.90
18218;DHT22;9234;49.344;11.120;2023-07-30T05:06:30;17.70;99.90
18218;DHT22;9234;49.344;11.120;2023-07-30T05:08:58;17.80;99.90
18218;DHT22;9234;49.344;11.120;2023-07-30T05:11:26;17.90;99.90
18218;DHT22;9234;49.344;11.120;2023-07-30T05:13:55;17.90;99.90
18218;DHT22;9234;49.344;11.120;2023-07-30T05:16:23;18.10;99.90
18218;DHT22;9234;49.344;11.120;2023-07-30T05:18:52;18.20;99.90
18218;DHT22;9234;49.344;11.120;2023-07-30T05:21:20;18.30;99.90
18218;DHT22;9234;49.344;11.120;2023-07-30T05:23:50;18.30;99.90
18218;DHT22;9234;49.344;11.120;2023-07-30T05:26:18;18.40;99.90
18218;DHT22;9234;49.344;11.120;2023-07-30T05:28:47;18.40;99.90
18218;DHT22;9234;49.344;11.120;2023-07-30T05:31:15;18.40;99.90
18218;DHT22;9234;49.344;11.120;2023-07-30T05:33:44;18.40;99.90
18218;DHT22;9234;49.344;11.120;2023-07-30T05:36:15;18.40;99.90
18218;DHT22;9234;49.344;11.120;2023-07-30T05:38:43;18.50;99.90
18218;DHT22;9234;49.344;11.120;2023-07-30T05:41:13;18.60;99.90
18218;DHT22;9234;49.344;11.120;2023-07-30T05:43:41;18.60;99.90
18218;DHT22;9234;49.344;11.120;2023-07-30T05:46:10;18.60;99.90
18218;DHT22;9234;49.344;11.120;2023-07-30T05:48:38;18.60;99.90
18218;DHT22;9234;49.344;11.120;2023-07-30T05:51:06;18.60;99.90
18218;DHT22;9234;49.344;11.120;2023-07-30T05:53:35;18.60;99.90
18218;DHT22;9234;49.344;11.120;2023-07-30T05:56:04;18.60;99.90
18218;DHT22;9234;49.344;11.120;2023-07-30T05:58:33;18.60;99.90
18218;DHT22;9234;49.344;11.120;2023-07-30T06:01:02;18.60;99.90
18218;DHT22;9234;49.344;11.120;2023-07-30T06:03:30;18.60;99.90
18218;DHT22;9234;49.344;11.120;2023-07-30T06:06:01;18.60;99.90
18218;DHT22;9234;49.344;11.120;2023-07-30T06:08:29;18.70;99.90
18218;DHT22;9234;49.344;11.120;2023-07-30T06:11:00;18.70;99.90
18218;DHT22;9234;49.344;11.120;2023-07-30T06:13:30;18.70;99.90
18218;DHT22;9234;49.344;11.120;2023-07-30T06:15:59;18.80;99.90
18218;DHT22;9234;49.344;11.120;2023-07-30T06:18:28;18.90;99.90
18218;DHT22;9234;49.344;11.120;2023-07-30T06:20:56;19.00;99.90
18218;DHT22;9234;49.344;11.120;2023-07-30T06:23:24;19.20;99.90
18218;DHT22;9234;49.344;11.120;2023-07-30T06:25:53;19.40;99.90
18218;DHT22;9234;49.344;11.120;2023-07-30T06:28:21;19.50;99.90
18218;DHT22;9234;49.344;11.120;2023-07-30T06:30:50;19.70;99.90
18218;DHT22;9234;49.344;11.120;2023-07-30T06:33:20;19.80;99.90
18218;DHT22;9234;49.344;11.120;2023-07-30T06:35:52;19.90;99.90
18218;DHT22;9234;49.344;11.120;2023-07-30T06:38:20;20.00;99.90
18218;DHT22;9234;49.344;11.120;2023-07-30T06:40:49;20.10;99.90
18218;DHT22;9234;49.344;11.120;2023-07-30T06:43:18;20.20;99.90
18218;DHT22;9234;49.344;11.120;2023-07-30T06:45:46;20.30;99.90
18218;DHT22;9234;49.344;11.120;2023-07-30T06:48:14;20.40;99.90
18218;DHT22;9234;49.344;11.120;2023-07-30T06:50:44;20.50;99.90
18218;DHT22;9234;49.344;11.120;2023-07-30T06:53:12;20.60;99.90
18218;DHT22;9234;49.344;11.120;2023-07-30T06:55:41;20.70;99.90
18218;DHT22;9234;49.344;11.120;2023-07-30T06:58:10;20.80;99.90
18218;DHT22;9234;49.344;11.120;2023-07-30T07:00:38;20.80;99.90
18218;DHT22;9234;49.344;11.120;2023-07-30T07:03:07;20.80;99.90
18218;DHT22;9234;49.344;11.120;2023-07-30T07:05:35;20.80;99.90
18218;DHT22;9234;49.344;11.120;2023-07-30T07:08:05;20.80;99.90
18218;DHT22;9234;49.344;11.120;2023-07-30T07:10:34;20.80;99.90
18218;DHT22;9234;49.344;11.120;2023-07-30T07:13:02;20.80;99.90
18218;DHT22;9234;49.344;11.120;2023-07-30T07:15:30;20.80;99.90
18218;DHT22;9234;49.344;11.120;2023-07-30T07:17:59;20.70;99.90
18218;DHT22;9234;49.344;11.120;2023-07-30T07:20:27;20.70;99.90
18218;DHT22;9234;49.344;11.120;2023-07-30T07:22:55;20.60;99.90
18218;DHT22;9234;49.344;11.120;2023-07-30T07:25:25;20.60;99.90
18218;DHT22;9234;49.344;11.120;2023-07-30T07:27:53;20.60;99.90
18218;DHT22;9234;49.344;11.120;2023-07-30T07:30:21;20.60;99.90
18218;DHT22;9234;49.344;11.120;2023-07-30T07:32:50;20.60;99.90
18218;DHT22;9234;49.344;11.120;2023-07-30T07:35:20;20.70;99.90
18218;DHT22;9234;49.344;11.120;2023-07-30T07:37:49;20.70;99.90
18218;DHT22;9234;49.344;11.120;2023-07-30T07:40:18;20.80;99.90
18218;DHT22;9234;49.344;11.120;2023-07-30T07:42:48;20.80;99.90
18218;DHT22;9234;49.344;11.120;2023-07-30T07:45:16;20.90;99.90
18218;DHT22;9234;49.344;11.120;2023-07-30T07:47:45;21.00;99.90
18218;DHT22;9234;49.344;11.120;2023-07-30T07:50:14;21.10;99.90
18218;DHT22;9234;49.344;11.120;2023-07-30T07:52:42;21.20;99.90
18218;DHT22;9234;49.344;11.120;2023-07-30T07:55:11;21.20;99.90
18218;DHT22;9234;49.344;11.120;2023-07-30T07:57:39;21.30;99.90
18218;DHT22;9234;49.344;11.120;2023-07-30T08:00:10;21.30;99.90
18218;DHT22;9234;49.344;11.120;2023-07-30T08:02:41;21.30;99.90
18218;DHT22;9234;49.344;11.120;2023-07-30T08:05:09;21.40;99.90
18218;DHT22;9234;49.344;11.120;2023-07-30T08:07:37;21.40;99.90
18218;DHT22;9234;49.344;11.120;2023-07-30T08:10:06;21.50;99.90
18218;DHT22;9234;49.344;11.120;2023-07-30T08:12:35;21.50;99.90
18218;DHT22;9234;49.344;11.120;2023-07-30T08:15:04;21.60;99.90
18218;DHT22;9234;49.344;11.120;2023-07-30T08:17:35;21.60;99.90
18218;DHT22;9234;49.344;11.120;2023-07-30T08:20:04;21.60;99.90
18218;DHT22;9234;49.344;11.120;2023-07-30T08:22:33;21.60;99.90
18218;DHT22;9234;49.344;11.120;2023-07-30T08:25:01;21.70;99.90
18218;DHT22;9234;49.344;11.120;2023-07-30T08:27:30;21.80;99.90
18218;DHT22;9234;49.344;11.120;2023-07-30T08:29:59;21.90;99.90
18218;DHT22;9234;49.344;11.120;2023-07-30T08:32:27;22.00;99.90
18218;DHT22;9234;49.344;11.120;2023-07-30T08:34:57;22.20;99.90
18218;DHT22;9234;49.344;11.120;2023-07-30T08:37:25;22.30;99.90
18218;DHT22;9234;49.344;11.120;2023-07-30T08:39:53;22.40;99.90
18218;DHT22;9234;49.344;11.120;2023-07-30T08:42:22;22.40;99.90
18218;DHT22;9234;49.344;11.120;2023-07-30T08:44:50;22.60;99.90
18218;DHT22;9234;49.344;11.120;2023-07-30T08:47:19;22.70;99.90
18218;DHT22;9234;49.344;11.120;2023-07-30T08:49:47;22.80;99.90
18218;DHT22;9234;49.344;11.120;2023-07-30T08:52:20;23.00;99.90
18218;DHT22;9234;49.344;11.120;2023-07-30T08:54:51;23.10;99.90
18218;DHT22;9234;49.344;11.120;2023-07-30T08:57:20;23.30;99.90
18218;DHT22;9234;49.344;11.120;2023-07-30T08:59:52;23.50;99.90
18218;DHT22;9234;49.344;11.120;2023-07-30T09:02:33;23.60;99.90
18218;DHT22;9234;49.344;11.120;2023-07-30T09:05:05;23.80;99.90
18218;DHT22;9234;49.344;11.120;2023-07-30T09:07:36;23.90;99.90
18218;DHT22;9234;49.344;11.120;2023-07-30T09:10:05;23.80;99.90
18218;DHT22;9234;49.344;11.120;2023-07-30T09:12:35;23.80;99.90
18218;DHT22;9234;49.344;11.120;2023-07-30T09:15:05;23.70;99.90
18218;DHT22;9234;49.344;11.120;2023-07-30T09:17:35;23.70;99.90
18218;DHT22;9234;49.344;11.120;2023-07-30T09:20:05;23.80;99.90
18218;DHT22;9234;49.344;11.120;2023-07-30T09:22:36;23.90;99.90
18218;DHT22;9234;49.344;11.120;2023-07-30T09:25:08;24.10;99.90
18218;DHT22;9234;49.344;11.120;2023-07-30T09:27:36;24.30;99.90
18218;DHT22;9234;49.344;11.120;2023-07-30T09:30:06;24.40;99.90
18218;DHT22;9234;49.344;11.120;2023-07-30T09:32:35;24.50;99.90
18218;DHT22;9234;49.344;11.120;2023-07-30T09:35:08;24.50;99.90
18218;DHT22;9234;49.344;11.120;2023-07-30T09:37:40;24.60;99.90
18218;DHT22;9234;49.344;11.120;2023-07-30T09:40:10;24.70;99.90
18218;DHT22;9234;49.344;11.120;2023-07-30T09:42:42;24.70;99.90
18218;DHT22;9234;49.344;11.120;2023-07-30T09:45:17;25.00;99.90
18218;DHT22;9234;49.344;11.120;2023-07-30T09:47:46;25.10;99.90
18218;DHT22;9234;49.344;11.120;2023-07-30T09:50:15;25.10;99.90
18218;DHT22;9234;49.344;11.120;2023-07-30T09:52:46;25.00;99.90
18218;DHT22;9234;49.344;11.120;2023-07-30T09:55:15;24.90;99.90
18218;DHT22;9234;49.344;11.120;2023-07-30T09:57:46;24.90;99.90
18218;DHT22;9234;49.344;11.120;2023-07-30T10:00:15;24.90;99.90
18218;DHT22;9234;49.344;11.120;2023-07-30T10:02:46;24.80;99.90
18218;DHT22;9234;49.344;11.120;2023-07-30T10:05:19;24.60;99.90
18218;DHT22;9234;49.344;11.120;2023-07-30T10:07:53;24.40;99.90
18218;DHT22;9234;49.344;11.120;2023-07-30T10:10:28;24.10;99.90
18218;DHT22;9234;49.344;11.120;2023-07-30T10:13:01;24.00;99.90
18218;DHT22;9234;49.344;11.120;2023-07-30T10:15:34;23.80;99.90
18218;DHT22;9234;49.344;11.120;2023-07-30T10:18:03;23.80;99.90
18218;DHT22;9234;49.344;11.120;2023-07-30T10:20:33;23.80;99.90
18218;DHT22;9234;49.344;11.120;2023-07-30T10:23:04;23.80;99.90
18218;DHT22;9234;49.344;11.120;2023-07-30T10:25:43;23.80;99.90
18218;DHT22;9234;49.344;11.120;2023-07-30T10:28:32;23.90;99.90
18218;DHT22;9234;49.344;11.120;2023-07-30T10:31:05;24.00;99.90
18218;DHT22;9234;49.344;11.120;2023-07-30T10:33:47;24.00;99.90
18218;DHT22;9234;49.344;11.120;2023-07-30T10:36:18;23.80;99.90
18218;DHT22;9234;49.344;11.120;2023-07-30T10:39:10;23.70;99.90
18218;DHT22;9234;49.344;11.120;2023-07-30T10:41:39;23.40;99.90
18218;DHT22;9234;49.344;11.120;2023-07-30T10:44:24;23.20;99.90
18218;DHT22;9234;49.344;11.120;2023-07-30T10:46:54;22.80;99.90
18218;DHT22;9234;49.344;11.120;2023-07-30T10:49:24;22.60;99.90
18218;DHT22;9234;49.344;11.120;2023-07-30T10:51:53;22.30;99.90
18218;DHT22;9234;49.344;11.120;2023-07-30T10:54:25;22.20;99.90
18218;DHT22;9234;49.344;11.120;2023-07-30T10:56:54;22.20;99.90
18218;DHT22;9234;49.344;11.120;2023-07-30T10:59:23;22.20;99.90
18218;DHT22;9234;49.344;11.120;2023-07-30T11:01:52;22.30;99.90
18218;DHT22;9234;49.344;11.120;2023-07-30T11:04:22;22.30;99.90
18218;DHT22;9234;49.344;11.120;2023-07-30T11:06:51;22.30;99.90
18218;DHT22;9234;49.344;11.120;2023-07-30T11:09:20;22.30;99.90
18218;DHT22;9234;49.344;11.120;2023-07-30T11:11:52;22.40;99.90
18218;DHT22;9234;49.344;11.120;2023-07-30T11:14:23;22.40;99.90
18218;DHT22;9234;49.344;11.120;2023-07-30T11:16:55;22.30;99.90
18218;DHT22;9234;49.344;11.120;2023-07-30T11:19:25;22.40;99.90
18218;DHT22;9234;49.344;11.120;2023-07-30T11:21:55;22.50;99.90
18218;DHT22;9234;49.344;11.120;2023-07-30T11:24:34;22.60;99.90
18218;DHT22;9234;49.344;11.120;2023-07-30T11:27:04;22.60;99.90
18218;DHT22;9234;49.344;11.120;2023-07-30T11:29:33;22.60;99.90
18218;DHT22;9234;49.344;11.120;2023-07-30T11:32:02;22.70;99.90
18218;DHT22;9234;49.344;11.120;2023-07-30T11:34:31;22.80;99.90
18218;DHT22;9234;49.344;11.120;2023-07-30T11:37:04;22.80;99.90
18218;DHT22;9234;49.344;11.120;2023-07-30T11:39:33;23.00;99.90
18218;DHT22;9234;49.344;11.120;2023-07-30T11:42:03;23.20;99.90
18218;DHT22;9234;49.344;11.120;2023-07-30T11:44:35;23.30;99.90
18218;DHT22;9234;49.344;11.120;2023-07-30T11:47:05;23.40;99.90
18218;DHT22;9234;49.344;11.120;2023-07-30T11:49:36;23.60;99.90
18218;DHT22;9234;49.344;11.120;2023-07-30T11:52:06;23.90;99.90
18218;DHT22;9234;49.344;11.120;2023-07-30T11:54:35;24.20;99.90
18218;DHT22;9234;49.344;11.120;2023-07-30T11:57:06;24.40;99.90
18218;DHT22;9234;49.344;11.120;2023-07-30T11:59:34;24.40;99.90
18218;DHT22;9234;49.344;11.120;2023-07-30T12:02:06;24.30;99.80
18218;DHT22;9234;49.344;11.120;2023-07-30T12:04:43;24.20;99.90
18218;DHT22;9234;49.344;11.120;2023-07-30T12:07:22;24.00;99.90
18218;DHT22;9234;49.344;11.120;2023-07-30T12:09:52;23.80;99.80
18218;DHT22;9234;49.344;11.120;2023-07-30T12:12:25;23.70;99.90
18218;DHT22;9234;49.344;11.120;2023-07-30T12:14:54;23.50;97.00
18218;DHT22;9234;49.344;11.120;2023-07-30T12:17:22;23.30;96.60
18218;DHT22;9234;49.344;11.120;2023-07-30T12:19:51;23.30;97.50
18218;DHT22;9234;49.344;11.120;2023-07-30T12:22:19;23.20;98.10
18218;DHT22;9234;49.344;11.120;2023-07-30T12:24:48;23.20;97.90
18218;DHT22;9234;49.344;11.120;2023-07-30T12:27:16;23.30;98.30
18218;DHT22;9234;49.344;11.120;2023-07-30T12:29:46;23.70;98.00
18218;DHT22;9234;49.344;11.120;2023-07-30T12:32:15;24.00;97.50
18218;DHT22;9234;49.344;11.120;2023-07-30T12:34:43;24.20;96.30
18218;DHT22;9234;49.344;11.120;2023-07-30T12:37:12;24.20;95.20
18218;DHT22;9234;49.344;11.120;2023-07-30T12:39:40;24.30;94.70
18218;DHT22;9234;49.344;11.120;2023-07-30T12:42:08;24.20;93.90
18218;DHT22;9234;49.344;11.120;2023-07-30T12:44:37;24.20;94.30
18218;DHT22;9234;49.344;11.120;2023-07-30T12:47:06;24.20;94.60
18218;DHT22;9234;49.344;11.120;2023-07-30T12:49:36;24.30;94.50
18218;DHT22;9234;49.344;11.120;2023-07-30T12:52:05;24.60;93.60
18218;DHT22;9234;49.344;11.120;2023-07-30T12:54:34;24.80;92.10
18218;DHT22;9234;49.344;11.120;2023-07-30T12:57:03;25.00;91.40
18218;DHT22;9234;49.344;11.120;2023-07-30T12:59:31;25.20;90.90
18218;DHT22;9234;49.344;11.120;2023-07-30T13:02:00;25.60;89.30
18218;DHT22;9234;49.344;11.120;2023-07-30T13:04:30;25.80;88.90
18218;DHT22;9234;49.344;11.120;2023-07-30T13:06:58;25.90;85.50
18218;DHT22;9234;49.344;11.120;2023-07-30T13:09:27;25.80;84.10
18218;DHT22;9234;49.344;11.120;2023-07-30T13:11:56;25.90;82.90
18218;DHT22;9234;49.344;11.120;2023-07-30T13:14:24;26.10;81.30
18218;DHT22;9234;49.344;11.120;2023-07-30T13:16:53;26.30;80.40
18218;DHT22;9234;49.344;11.120;2023-07-30T13:19:21;26.60;80.60
18218;DHT22;9234;49.344;11.120;2023-07-30T13:21:51;26.90;81.90
18218;DHT22;9234;49.344;11.120;2023-07-30T13:24:19;27.50;82.20
18218;DHT22;9234;49.344;11.120;2023-07-30T13:26:47;28.10;76.50
18218;DHT22;9234;49.344;11.120;2023-07-30T13:29:16;28.40;74.80
18218;DHT22;9234;49.344;11.120;2023-07-30T13:31:44;28.80;73.00
18218;DHT22;9234;49.344;11.120;2023-07-30T13:34:13;28.80;71.00
18218;DHT22;9234;49.344;11.120;2023-07-30T13:36:41;28.90;72.00
18218;DHT22;9234;49.344;11.120;2023-07-30T13:39:10;29.10;70.70
18218;DHT22;9234;49.344;11.120;2023-07-30T13:41:39;29.20;71.30
18218;DHT22;9234;49.344;11.120;2023-07-30T13:44:08;29.40;68.50
18218;DHT22;9234;49.344;11.120;2023-07-30T13:46:37;29.50;69.10
18218;DHT22;9234;49.344;11.120;2023-07-30T13:49:07;29.90;68.50
18218;DHT22;9234;49.344;11.120;2023-07-30T13:51:36;30.10;66.80
18218;DHT22;9234;49.344;11.120;2023-07-30T13:54:04;30.20;65.70
18218;DHT22;9234;49.344;11.120;2023-07-30T13:56:36;30.10;66.00
18218;DHT22;9234;49.344;11.120;2023-07-30T13:59:05;30.00;66.10
18218;DHT22;9234;49.344;11.120;2023-07-30T14:01:34;29.50;65.20
18218;DHT22;9234;49.344;11.120;2023-07-30T14:04:03;29.00;65.60
18218;DHT22;9234;49.344;11.120;2023-07-30T14:06:32;28.40;65.90
18218;DHT22;9234;49.344;11.120;2023-07-30T14:09:02;27.70;66.80
18218;DHT22;9234;49.344;11.120;2023-07-30T14:11:31;27.20;68.90
18218;DHT22;9234;49.344;11.120;2023-07-30T14:14:01;26.70;70.50
18218;DHT22;9234;49.344;11.120;2023-07-30T14:16:29;26.30;72.30
18218;DHT22;9234;49.344;11.120;2023-07-30T14:18:58;25.80;74.50
18218;DHT22;9234;49.344;11.120;2023-07-30T14:21:26;25.40;76.30
18218;DHT22;9234;49.344;11.120;2023-07-30T14:23:55;25.20;78.10
18218;DHT22;9234;49.344;11.120;2023-07-30T14:26:23;25.50;79.60
18218;DHT22;9234;49.344;11.120;2023-07-30T14:28:51;25.90;77.90
18218;DHT22;9234;49.344;11.120;2023-07-30T14:31:21;26.70;77.80
18218;DHT22;9234;49.344;11.120;2023-07-30T14:33:50;27.40;74.20
18218;DHT22;9234;49.344;11.120;2023-07-30T14:36:18;28.20;72.90
18218;DHT22;9234;49.344;11.120;2023-07-30T14:38:47;28.60;70.00
18218;DHT22;9234;49.344;11.120;2023-07-30T14:41:15;28.60;69.20
18218;DHT22;9234;49.344;11.120;2023-07-30T14:43:43;28.30;69.30
18218;DHT22;9234;49.344;11.120;2023-07-30T14:46:12;28.40;70.40
18218;DHT22;9234;49.344;11.120;2023-07-30T14:48:43;28.20;68.60
18218;DHT22;9234;49.344;11.120;2023-07-30T14:51:11;28.10;69.10
18218;DHT22;9234;49.344;11.120;2023-07-30T14:53:39;28.10;69.20
18218;DHT22;9234;49.344;11.120;2023-07-30T14:56:08;28.40;69.50
18218;DHT22;9234;49.344;11.120;2023-07-30T14:58:37;28.80;66.60
18218;DHT22;9234;49.344;11.120;2023-07-30T15:01:05;29.20;65.70
18218;DHT22;9234;49.344;11.120;2023-07-30T15:03:38;29.60;62.20
18218;DHT22;9234;49.344;11.120;2023-07-30T15:06:07;30.00;59.90
18218;DHT22;9234;49.344;11.120;2023-07-30T15:08:36;30.10;59.60
18218;DHT22;9234;49.344;11.120;2023-07-30T15:11:04;30.40;59.80
18218;DHT22;9234;49.344;11.120;2023-07-30T15:13:32;31.00;58.40
18218;DHT22;9234;49.344;11.120;2023-07-30T15:16:01;30.90;55.70
18218;DHT22;9234;49.344;11.120;2023-07-30T15:18:29;30.20;56.60
18218;DHT22;9234;49.344;11.120;2023-07-30T15:20:58;29.40;57.80
18218;DHT22;9234;49.344;11.120;2023-07-30T15:23:27;28.80;59.80
18218;DHT22;9234;49.344;11.120;2023-07-30T15:25:56;28.40;61.80
18218;DHT22;9234;49.344;11.120;2023-07-30T15:28:25;28.30;61.70
18218;DHT22;9234;49.344;11.120;2023-07-30T15:30:53;28.00;62.10
18218;DHT22;9234;49.344;11.120;2023-07-30T15:33:21;27.80;61.70
18218;DHT22;9234;49.344;11.120;2023-07-30T15:35:50;28.10;62.20
18218;DHT22;9234;49.344;11.120;2023-07-30T15:38:19;28.70;60.20
18218;DHT22;9234;49.344;11.120;2023-07-30T15:40:48;29.40;57.20
18218;DHT22;9234;49.344;11.120;2023-07-30T15:43:17;29.80;55.80